Legend — WDF9316 — position and weather

sailwx.info

Track history (hours):
 
Tides and Currents Weather Stations Pressure Air Temp Water Temp Dewpoint Dewpoint Depression Visibility Wind Speed Wind Dir Waves Ship Positions

Legend

Owner: Crowley Maritime, Seattle, WA. More information available from US FCC via Universal Licensing System and Coast Guard Vessel Documentation Center.

Last reported at 2016-Jul-22 00:25 UTC. Time now 2016-Jul-23 19:20 UTC.
Position N 25°35' W 080°01'.

Length 212 m; draft 7.8 m.

Type: Towing. MMSI: 366709000.

Date/timePositionNaut miles runAvg speedWind from/ knotsBaromVisibWave heightAir tempDewpointWater temp
2016-Jul-22 00:25N 25°35' W 080°01'7 7.8
2016-Jul-21 23:33N 25°42' W 080°01'8 7.6
2016-Jul-21 22:32N 25°49' W 080°01'7 7.5
2016-Jul-21 21:33N 25°57' W 080°01'9 9.4
2016-Jul-21 20:33N 26°05' W 080°05'2 1.7
2016-Jul-21 19:24N 26°06' W 080°07'0 0.0
2016-Jul-21 18:27N 26°06' W 080°07'0 0.0
2016-Jul-21 17:27N 26°06' W 080°07'0 0.0
2016-Jul-21 16:24N 26°06' W 080°07'0 0.0
2016-Jul-21 15:30N 26°06' W 080°07'0 0.0
2016-Jul-21 14:30N 26°06' W 080°07'0 0.0
2016-Jul-21 13:30N 26°06' W 080°07'0 0.0
2016-Jul-21 12:33N 26°06' W 080°07'0 0.0
2016-Jul-21 11:33N 26°06' W 080°07'0 0.0
2016-Jul-21 10:33N 26°06' W 080°07'0 0.0
2016-Jul-21 09:33N 26°06' W 080°07'0 0.0
2016-Jul-21 08:33N 26°06' W 080°07'0 0.0
2016-Jul-21 07:33N 26°06' W 080°07'0 0.0
2016-Jul-21 06:24N 26°06' W 080°07'0 0.0
2016-Jul-21 04:24N 26°06' W 080°07'0 0.0
2016-Jul-21 03:27N 26°06' W 080°07'0 0.0
2016-Jul-21 02:27N 26°06' W 080°07'0 0.0
2016-Jul-21 01:27N 26°06' W 080°07'0 0.0
2016-Jul-21 00:30N 26°06' W 080°07'0 0.0
2016-Jul-20 23:30N 26°06' W 080°07'0 0.0
2016-Jul-20 22:30N 26°06' W 080°07'0 0.0
2016-Jul-20 21:33N 26°06' W 080°07'0 0.0
2016-Jul-20 20:30N 26°06' W 080°07'0 0.0
2016-Jul-20 19:33N 26°06' W 080°07'0 0.0
2016-Jul-20 18:33N 26°06' W 080°07'0 0.0
2016-Jul-20 17:33N 26°06' W 080°07'0 0.0
2016-Jul-20 16:33N 26°06' W 080°07'0 0.0
2016-Jul-20 15:33N 26°06' W 080°07'0 0.0
2016-Jul-20 14:24N 26°06' W 080°07'2 2.2
2016-Jul-20 13:33N 26°06' W 080°05'2211.0
2016-Jul-20 11:33N 25°44' W 079°59'  
2016-Jul-17 12:26N 29°32' W 093°44'1010.0
2016-Jul-17 11:29N 29°40' W 093°50'7 7.3
2016-Jul-17 10:33N 29°46' W 093°54'6 5.7
2016-Jul-17 09:31N 29°51' W 093°57'0 0.3
2016-Jul-17 08:23N 29°52' W 093°56'0 0.0
2016-Jul-17 07:29N 29°52' W 093°56'0 0.0
2016-Jul-17 06:26N 29°52' W 093°56'0 0.0
2016-Jul-17 04:29N 29°52' W 093°56'3 0.5
2016-Jul-16 22:32N 29°54' W 093°54'5 5.2
2016-Jul-16 21:33N 29°59' W 093°53'5 5.3
2016-Jul-16 20:33N 30°01' W 093°59'3 0.4
2016-Jul-16 13:14N 30°02' W 094°02'0 0.0
2016-Jul-15 04:32N 30°02' W 094°02'0 0.0
2016-Jul-15 02:20N 30°02' W 094°02'0 0.0
2016-Jul-15 01:20N 30°02' W 094°02'0 0.0
2016-Jul-15 00:14N 30°02' W 094°02'0 0.0
2016-Jul-14 09:26N 30°02' W 094°02'0 0.1
2016-Jul-14 08:33N 30°02' W 094°02'3 3.1
2016-Jul-14 07:33N 30°01' W 093°59'6 5.9
2016-Jul-14 06:33N 29°59' W 093°52'7 6.9
2016-Jul-14 05:33N 29°53' W 093°55'7 7.3
2016-Jul-14 04:33N 29°45' W 093°53'9 9.3
2016-Jul-14 03:33N 29°37' W 093°49'1210.0
2016-Jul-14 02:22N 29°28' W 093°40'1412.9
2016-Jul-14 01:15N 29°14' W 093°39'  
Track history (hours):
 
Tides and Currents Weather Stations Pressure Air Temp Water Temp Dewpoint Dewpoint Depression Visibility Wind Speed Wind Dir Waves Ship Positions

Legend

Owner: Crowley Maritime, Seattle, WA. More information available from US FCC via Universal Licensing System and Coast Guard Vessel Documentation Center.

Last reported at 2016-Jul-22 00:25 UTC. Time now 2016-Jul-23 19:20 UTC.
Position N 25°35' W 080°01'.

Length 212 m; draft 7.8 m.

Type: Towing. MMSI: 366709000.

Date/timePositionNaut miles runAvg speedWind from/ knotsBaromVisibWave heightAir tempDewpointWater temp
2016-Jul-22 00:25N 25°35' W 080°01'7 7.8
2016-Jul-21 23:33N 25°42' W 080°01'8 7.6
2016-Jul-21 22:32N 25°49' W 080°01'7 7.5
2016-Jul-21 21:33N 25°57' W 080°01'9 9.4
2016-Jul-21 20:33N 26°05' W 080°05'2 1.7
2016-Jul-21 19:24N 26°06' W 080°07'0 0.0
2016-Jul-21 18:27N 26°06' W 080°07'0 0.0
2016-Jul-21 17:27N 26°06' W 080°07'0 0.0
2016-Jul-21 16:24N 26°06' W 080°07'0 0.0
2016-Jul-21 15:30N 26°06' W 080°07'0 0.0
2016-Jul-21 14:30N 26°06' W 080°07'0 0.0
2016-Jul-21 13:30N 26°06' W 080°07'0 0.0
2016-Jul-21 12:33N 26°06' W 080°07'0 0.0
2016-Jul-21 11:33N 26°06' W 080°07'0 0.0
2016-Jul-21 10:33N 26°06' W 080°07'0 0.0
2016-Jul-21 09:33N 26°06' W 080°07'0 0.0
2016-Jul-21 08:33N 26°06' W 080°07'0 0.0
2016-Jul-21 07:33N 26°06' W 080°07'0 0.0
2016-Jul-21 06:24N 26°06' W 080°07'0 0.0
2016-Jul-21 04:24N 26°06' W 080°07'0 0.0
2016-Jul-21 03:27N 26°06' W 080°07'0 0.0
2016-Jul-21 02:27N 26°06' W 080°07'0 0.0
2016-Jul-21 01:27N 26°06' W 080°07'0 0.0
2016-Jul-21 00:30N 26°06' W 080°07'0 0.0
2016-Jul-20 23:30N 26°06' W 080°07'0 0.0
2016-Jul-20 22:30N 26°06' W 080°07'0 0.0
2016-Jul-20 21:33N 26°06' W 080°07'0 0.0
2016-Jul-20 20:30N 26°06' W 080°07'0 0.0
2016-Jul-20 19:33N 26°06' W 080°07'0 0.0
2016-Jul-20 18:33N 26°06' W 080°07'0 0.0
2016-Jul-20 17:33N 26°06' W 080°07'0 0.0
2016-Jul-20 16:33N 26°06' W 080°07'0 0.0
2016-Jul-20 15:33N 26°06' W 080°07'0 0.0
2016-Jul-20 14:24N 26°06' W 080°07'2 2.2
2016-Jul-20 13:33N 26°06' W 080°05'2211.0
2016-Jul-20 11:33N 25°44' W 079°59'  
2016-Jul-17 12:26N 29°32' W 093°44'1010.0
2016-Jul-17 11:29N 29°40' W 093°50'7 7.3
2016-Jul-17 10:33N 29°46' W 093°54'6 5.7
2016-Jul-17 09:31N 29°51' W 093°57'0 0.3
2016-Jul-17 08:23N 29°52' W 093°56'0 0.0
2016-Jul-17 07:29N 29°52' W 093°56'0 0.0
2016-Jul-17 06:26N 29°52' W 093°56'0 0.0
2016-Jul-17 04:29N 29°52' W 093°56'3 0.5
2016-Jul-16 22:32N 29°54' W 093°54'5 5.2
2016-Jul-16 21:33N 29°59' W 093°53'5 5.3
2016-Jul-16 20:33N 30°01' W 093°59'3 0.4
2016-Jul-16 13:14N 30°02' W 094°02'0 0.0
2016-Jul-15 04:32N 30°02' W 094°02'0 0.0
2016-Jul-15 02:20N 30°02' W 094°02'0 0.0
2016-Jul-15 01:20N 30°02' W 094°02'0 0.0
2016-Jul-15 00:14N 30°02' W 094°02'0 0.0
2016-Jul-14 09:26N 30°02' W 094°02'0 0.1
2016-Jul-14 08:33N 30°02' W 094°02'3 3.1
2016-Jul-14 07:33N 30°01' W 093°59'6 5.9
2016-Jul-14 06:33N 29°59' W 093°52'7 6.9
2016-Jul-14 05:33N 29°53' W 093°55'7 7.3
2016-Jul-14 04:33N 29°45' W 093°53'9 9.3
2016-Jul-14 03:33N 29°37' W 093°49'1210.0
2016-Jul-14 02:22N 29°28' W 093°40'1412.9
2016-Jul-14 01:15N 29°14' W 093°39'  

Dump ship's entire track history